createdAt,value
2018-04-17T00:00:05.719Z,0.00
2018-04-17T00:01:05.740Z,0.00
2018-04-17T00:02:05.764Z,0.00
2018-04-17T00:03:05.785Z,0.00
2018-04-17T00:04:05.815Z,0.00
2018-04-17T00:05:05.841Z,0.00
2018-04-17T00:06:05.858Z,0.00
2018-04-17T00:07:05.884Z,0.00
2018-04-17T00:08:05.902Z,0.00
2018-04-17T00:09:05.924Z,0.00
2018-04-17T00:10:05.948Z,0.00
2018-04-17T00:11:05.972Z,0.00
2018-04-17T00:12:05.998Z,0.00
2018-04-17T00:13:06.014Z,0.00
2018-04-17T00:14:06.036Z,0.00
2018-04-17T00:15:06.058Z,0.00
2018-04-17T00:16:06.088Z,0.00
2018-04-17T00:17:06.103Z,0.00
2018-04-17T00:18:06.132Z,0.00
2018-04-17T00:19:06.149Z,0.00
2018-04-17T00:20:06.172Z,0.00
2018-04-17T00:21:06.198Z,0.00
2018-04-17T00:22:06.217Z,0.00
2018-04-17T00:23:06.241Z,0.00
2018-04-17T00:24:06.261Z,0.00
2018-04-17T00:25:06.285Z,0.00
2018-04-17T00:26:06.308Z,0.00
2018-04-17T00:27:06.331Z,0.00
2018-04-17T00:28:06.352Z,0.00
2018-04-17T00:29:06.376Z,0.00
2018-04-17T00:30:06.401Z,0.00
2018-04-17T00:31:06.425Z,0.00
2018-04-17T00:32:06.444Z,0.00
2018-04-17T00:33:06.475Z,0.00
2018-04-17T00:34:06.492Z,0.00
2018-04-17T00:35:06.511Z,0.00
2018-04-17T00:36:06.534Z,0.00
2018-04-17T00:37:06.556Z,0.00
2018-04-17T00:38:06.584Z,0.00
2018-04-17T00:39:06.603Z,0.00
2018-04-17T00:40:06.628Z,0.00
2018-04-17T00:41:06.645Z,0.00
2018-04-17T00:42:06.674Z,0.00
2018-04-17T00:43:06.690Z,0.00
2018-04-17T00:44:06.719Z,0.00
2018-04-17T00:45:06.790Z,0.00
2018-04-17T00:46:06.814Z,0.00
2018-04-17T00:47:06.789Z,0.00
2018-04-17T00:48:06.807Z,0.00
2018-04-17T00:49:06.834Z,0.00
2018-04-17T00:50:06.851Z,0.00
2018-04-17T00:51:06.881Z,0.00
2018-04-17T00:52:06.905Z,0.00
2018-04-17T00:53:06.926Z,0.00
2018-04-17T00:54:06.942Z,0.00
2018-04-17T00:55:06.966Z,0.00
2018-04-17T00:56:06.992Z,0.00
2018-04-17T00:57:07.013Z,0.00
2018-04-17T00:58:07.032Z,0.00
2018-04-17T00:59:07.061Z,0.00
2018-04-17T01:00:07.082Z,0.00
2018-04-17T01:01:07.101Z,0.00
2018-04-17T01:02:07.137Z,0.00
2018-04-17T01:03:07.146Z,0.00
2018-04-17T01:04:07.172Z,0.00
2018-04-17T01:05:07.192Z,0.00
2018-04-17T01:06:07.220Z,0.00
2018-04-17T01:07:07.241Z,0.00
2018-04-17T01:08:07.261Z,0.00
2018-04-17T01:09:07.283Z,0.00
2018-04-17T01:10:07.309Z,0.00
2018-04-17T01:11:07.335Z,0.00
2018-04-17T01:12:07.351Z,0.00
2018-04-17T01:13:07.372Z,0.00
2018-04-17T01:14:07.396Z,0.00
2018-04-17T01:15:07.423Z,0.00
2018-04-17T01:16:07.441Z,0.00
2018-04-17T01:17:07.467Z,0.00
2018-04-17T01:18:07.491Z,0.00
2018-04-17T01:19:07.516Z,0.00
2018-04-17T01:20:07.532Z,0.00
2018-04-17T01:21:07.556Z,0.00
2018-04-17T01:22:07.579Z,0.00
2018-04-17T01:23:07.601Z,0.00
2018-04-17T01:24:07.634Z,0.00
2018-04-17T01:25:07.646Z,0.00
2018-04-17T01:26:07.666Z,0.00
2018-04-17T01:27:07.689Z,0.00
2018-04-17T01:28:07.711Z,0.00
2018-04-17T01:29:07.735Z,0.00
2018-04-17T01:30:07.757Z,0.00
2018-04-17T01:31:07.784Z,0.00
2018-04-17T01:32:07.803Z,0.00
2018-04-17T01:33:07.826Z,0.00
2018-04-17T01:34:07.849Z,0.00
2018-04-17T01:35:07.874Z,0.00
2018-04-17T01:36:07.894Z,0.00
2018-04-17T01:37:07.920Z,0.00
2018-04-17T01:38:07.934Z,0.00
2018-04-17T01:39:07.959Z,0.00
2018-04-17T01:40:07.981Z,0.00
2018-04-17T01:41:08.004Z,0.00
2018-04-17T01:42:08.029Z,0.00
2018-04-17T01:43:08.051Z,0.00
2018-04-17T01:44:08.079Z,0.00
2018-04-17T01:45:08.093Z,0.00
2018-04-17T01:46:08.124Z,0.00
2018-04-17T01:47:08.138Z,0.00
2018-04-17T01:48:08.163Z,0.00
2018-04-17T01:49:08.182Z,0.00
2018-04-17T01:50:08.203Z,0.00
2018-04-17T01:51:08.226Z,0.00
2018-04-17T01:52:08.248Z,0.00
2018-04-17T01:53:08.277Z,0.00
2018-04-17T01:54:08.294Z,0.00
2018-04-17T01:55:08.323Z,0.00
2018-04-17T01:56:08.355Z,0.00
2018-04-17T01:57:08.365Z,0.00
2018-04-17T01:58:08.389Z,0.00
2018-04-17T01:59:08.412Z,0.00
2018-04-17T02:00:08.430Z,0.00
2018-04-17T02:01:08.456Z,0.00
2018-04-17T02:02:08.473Z,0.00
2018-04-17T02:03:08.504Z,0.00
2018-04-17T02:04:08.524Z,0.00
2018-04-17T02:05:08.545Z,0.00
2018-04-17T02:06:08.565Z,0.00
2018-04-17T02:07:08.591Z,0.00
2018-04-17T02:08:08.610Z,0.00
2018-04-17T02:09:08.632Z,0.00
2018-04-17T02:10:08.658Z,0.00
2018-04-17T02:11:08.680Z,0.00
2018-04-17T02:12:08.703Z,0.00
2018-04-17T02:13:08.728Z,0.00
2018-04-17T02:14:08.751Z,0.00
2018-04-17T02:15:08.770Z,0.00
2018-04-17T02:16:08.789Z,0.00
2018-04-17T02:17:08.810Z,0.00
2018-04-17T02:18:08.840Z,0.00
2018-04-17T02:19:08.855Z,0.00
2018-04-17T02:20:08.880Z,0.00
2018-04-17T02:21:08.900Z,0.00
2018-04-17T02:22:08.925Z,0.00
2018-04-17T02:23:08.944Z,0.00
2018-04-17T02:24:08.969Z,0.00
2018-04-17T02:25:08.989Z,0.00
2018-04-17T02:26:09.008Z,0.00
2018-04-17T02:27:09.031Z,0.00
2018-04-17T02:28:09.063Z,0.00
2018-04-17T02:29:09.079Z,0.00
2018-04-17T02:30:09.099Z,0.00
2018-04-17T02:31:09.127Z,0.00
2018-04-17T02:32:09.146Z,0.00
2018-04-17T02:33:09.169Z,0.00
2018-04-17T02:34:09.193Z,0.00
2018-04-17T02:35:09.215Z,0.00
2018-04-17T02:36:09.237Z,0.00
2018-04-17T02:37:09.261Z,0.00
2018-04-17T02:38:09.283Z,0.00
2018-04-17T02:39:09.299Z,0.00
2018-04-17T02:40:09.329Z,0.00
2018-04-17T02:41:09.344Z,0.00
2018-04-17T02:42:09.364Z,0.00
2018-04-17T02:43:09.390Z,0.00
2018-04-17T02:44:09.409Z,0.00
2018-04-17T02:45:09.435Z,0.00
2018-04-17T02:46:09.457Z,0.00
2018-04-17T02:47:09.480Z,0.00
2018-04-17T02:48:09.497Z,0.00
2018-04-17T02:49:09.519Z,0.00
2018-04-17T02:50:09.543Z,0.00
2018-04-17T02:51:09.564Z,0.00
2018-04-17T02:52:09.591Z,0.00
2018-04-17T02:53:09.607Z,0.00
2018-04-17T02:54:09.627Z,0.00
2018-04-17T02:55:09.656Z,0.00
2018-04-17T02:56:09.678Z,0.00
2018-04-17T02:57:09.709Z,0.00
2018-04-17T02:58:09.722Z,0.00
2018-04-17T02:59:09.740Z,0.00
2018-04-17T03:00:09.760Z,0.00
2018-04-17T03:01:09.792Z,0.00
2018-04-17T03:02:09.809Z,0.00
2018-04-17T03:03:09.826Z,0.00
2018-04-17T03:04:09.852Z,0.00
2018-04-17T03:05:09.872Z,0.00
2018-04-17T03:06:09.890Z,0.00
2018-04-17T03:07:09.918Z,0.00
2018-04-17T03:08:09.935Z,0.00
2018-04-17T03:09:09.960Z,0.00
2018-04-17T03:10:09.985Z,0.00
2018-04-17T03:11:10.007Z,0.00
2018-04-17T03:12:10.029Z,0.00
2018-04-17T03:13:10.045Z,0.00
2018-04-17T03:14:10.071Z,0.00
2018-04-17T03:15:10.090Z,0.00
2018-04-17T03:16:10.114Z,0.00
2018-04-17T03:17:10.135Z,0.00
2018-04-17T03:18:10.156Z,0.00
2018-04-17T03:19:10.178Z,0.00
2018-04-17T03:20:10.205Z,0.00
2018-04-17T03:21:10.220Z,0.00
2018-04-17T03:22:10.245Z,0.00
2018-04-17T03:23:10.264Z,0.00
2018-04-17T03:24:10.289Z,0.00
2018-04-17T03:25:10.314Z,0.00
2018-04-17T03:26:10.330Z,0.00
2018-04-17T03:27:10.356Z,0.00
2018-04-17T03:28:10.373Z,0.00
2018-04-17T03:29:10.399Z,0.00
2018-04-17T03:30:10.424Z,0.00
2018-04-17T03:31:10.450Z,0.00
2018-04-17T03:32:10.468Z,0.00
2018-04-17T03:33:10.484Z,0.00
2018-04-17T03:34:10.503Z,0.00
2018-04-17T03:35:10.529Z,0.00
2018-04-17T03:36:10.548Z,0.00
2018-04-17T03:37:10.572Z,0.00
2018-04-17T03:38:10.593Z,4.00
2018-04-17T03:39:10.622Z,4.00
2018-04-17T03:40:10.638Z,4.00
2018-04-17T03:41:10.662Z,4.00
2018-04-17T03:42:10.682Z,0.00
2018-04-17T03:43:10.706Z,4.00
2018-04-17T03:44:10.731Z,4.00
2018-04-17T03:45:10.751Z,4.00
2018-04-17T03:46:10.772Z,4.00
2018-04-17T03:47:10.796Z,8.00
2018-04-17T03:48:10.816Z,4.00
2018-04-17T03:49:10.831Z,8.00
2018-04-17T03:50:10.856Z,8.00
2018-04-17T03:51:10.876Z,8.00
2018-04-17T03:52:10.913Z,12.00
2018-04-17T03:53:10.920Z,12.00
2018-04-17T03:54:10.946Z,12.00
2018-04-17T03:55:10.968Z,16.00
2018-04-17T03:56:10.991Z,20.00
2018-04-17T03:57:11.010Z,20.00
2018-04-17T03:58:11.034Z,24.00
2018-04-17T03:59:11.052Z,28.00
2018-04-17T04:00:11.076Z,32.00
2018-04-17T04:01:11.095Z,40.00
2018-04-17T04:02:11.120Z,44.00
2018-04-17T04:03:11.140Z,56.00
2018-04-17T04:04:11.160Z,60.00
2018-04-17T04:05:11.194Z,72.00
2018-04-17T04:06:11.205Z,80.00
2018-04-17T04:07:11.233Z,92.00
2018-04-17T04:08:11.249Z,108.00
2018-04-17T04:09:11.273Z,120.00
2018-04-17T04:10:11.290Z,136.00
2018-04-17T04:11:11.317Z,152.00
2018-04-17T04:12:11.340Z,172.00
2018-04-17T04:13:11.364Z,192.00
2018-04-17T04:14:11.383Z,212.00
2018-04-17T04:15:11.404Z,236.00
2018-04-17T04:16:11.453Z,264.00
2018-04-17T04:17:11.451Z,292.00
2018-04-17T04:18:11.464Z,316.00
2018-04-17T04:19:11.493Z,348.00
2018-04-17T04:20:11.509Z,384.00
2018-04-17T04:21:11.535Z,416.00
2018-04-17T04:22:11.558Z,456.00
2018-04-17T04:23:11.582Z,492.00
2018-04-17T04:24:11.603Z,528.00
2018-04-17T04:25:11.622Z,572.00
2018-04-17T04:26:11.648Z,612.00
2018-04-17T04:27:11.669Z,656.00
2018-04-17T04:28:11.692Z,700.00
2018-04-17T04:29:11.708Z,748.00
2018-04-17T04:30:11.742Z,792.00
2018-04-17T04:31:11.754Z,840.00
2018-04-17T04:32:11.772Z,888.00
2018-04-17T04:33:11.801Z,936.00
2018-04-17T04:34:11.819Z,988.00
2018-04-17T04:35:11.841Z,1032.00
2018-04-17T04:36:11.860Z,1088.00
2018-04-17T04:37:11.883Z,1140.00
2018-04-17T04:38:11.908Z,1188.00
2018-04-17T04:39:11.923Z,1240.00
2018-04-17T04:40:11.948Z,1288.00
2018-04-17T04:41:11.972Z,1344.00
2018-04-17T04:42:11.992Z,1396.00
2018-04-17T04:43:12.019Z,1448.00
2018-04-17T04:44:12.037Z,1500.00
2018-04-17T04:45:12.059Z,1556.00
2018-04-17T04:46:12.080Z,1608.00
2018-04-17T04:47:12.107Z,1664.00
2018-04-17T04:48:12.127Z,1720.00
2018-04-17T04:49:12.148Z,1772.00
2018-04-17T04:50:12.171Z,1820.00
2018-04-17T04:51:12.187Z,1824.00
2018-04-17T04:52:12.239Z,1924.00
2018-04-17T04:53:12.237Z,1976.00
2018-04-17T04:54:12.257Z,2028.00
2018-04-17T04:55:12.277Z,2076.00
2018-04-17T04:56:12.301Z,2128.00
2018-04-17T04:57:12.337Z,2176.00
2018-04-17T04:58:12.347Z,2224.00
2018-04-17T04:59:12.367Z,2272.00
2018-04-17T05:00:12.388Z,2324.00
2018-04-17T05:01:12.408Z,2368.00
2018-04-17T05:02:12.432Z,2400.00
2018-04-17T05:03:12.452Z,2456.00
2018-04-17T05:04:12.477Z,2504.00
2018-04-17T05:05:12.500Z,2552.00
2018-04-17T05:06:12.518Z,2592.00
2018-04-17T05:07:12.541Z,2636.00
2018-04-17T05:08:12.561Z,2680.00
2018-04-17T05:09:12.587Z,2716.00
2018-04-17T05:10:12.623Z,2756.00
2018-04-17T05:11:12.628Z,2796.00
2018-04-17T05:12:12.651Z,2836.00
2018-04-17T05:13:12.672Z,2872.00
2018-04-17T05:14:12.699Z,2908.00
2018-04-17T05:15:12.722Z,2948.00
2018-04-17T05:16:12.738Z,2976.00
2018-04-17T05:17:12.762Z,3020.00
2018-04-17T05:18:12.782Z,3048.00
2018-04-17T05:19:12.817Z,3084.00
2018-04-17T05:20:12.827Z,3116.00
2018-04-17T05:21:12.847Z,3148.00
2018-04-17T05:22:12.872Z,3180.00
2018-04-17T05:23:12.895Z,3216.00
2018-04-17T05:24:12.917Z,3248.00
2018-04-17T05:25:12.937Z,3276.00
2018-04-17T05:26:12.967Z,3312.00
2018-04-17T05:27:12.985Z,3344.00
2018-04-17T05:28:13.005Z,3372.00
2018-04-17T05:29:13.033Z,3396.00
2018-04-17T05:30:13.051Z,3428.00
2018-04-17T05:31:13.070Z,3452.00
2018-04-17T05:32:13.096Z,3476.00
2018-04-17T05:33:13.120Z,3508.00
2018-04-17T05:34:13.169Z,3244.00
2018-04-17T05:35:13.167Z,3552.00
2018-04-17T05:36:13.185Z,3580.00
2018-04-17T05:37:13.217Z,3604.00
2018-04-17T05:38:13.230Z,3624.00
2018-04-17T05:39:13.264Z,3652.00
2018-04-17T05:40:13.335Z,3552.00
2018-04-17T05:41:13.291Z,3704.00
2018-04-17T05:42:13.319Z,3728.00
2018-04-17T05:43:13.335Z,3752.00
2018-04-17T05:44:13.364Z,3772.00
2018-04-17T05:45:13.381Z,3784.00
2018-04-17T05:46:13.406Z,3796.00
2018-04-17T05:47:13.428Z,3808.00
2018-04-17T05:48:13.450Z,3816.00
2018-04-17T05:49:13.471Z,3824.00
2018-04-17T05:50:13.577Z,3828.00
2018-04-17T05:51:13.516Z,3840.00
2018-04-17T05:52:13.538Z,3856.00
2018-04-17T05:53:13.560Z,3872.00
2018-04-17T05:54:13.580Z,3892.00
2018-04-17T05:55:13.607Z,3908.00
2018-04-17T05:56:13.626Z,3924.00
2018-04-17T05:57:13.650Z,3936.00
2018-04-17T05:58:13.676Z,3956.00
2018-04-17T05:59:13.700Z,3976.00
2018-04-17T06:00:13.714Z,3992.00
2018-04-17T06:01:13.740Z,4008.00
2018-04-17T06:02:13.760Z,4020.00
2018-04-17T06:03:13.782Z,4040.00
2018-04-17T06:04:13.804Z,4060.00
2018-04-17T06:05:13.879Z,4072.00
2018-04-17T06:06:13.852Z,4088.00
2018-04-17T06:07:13.869Z,4100.00
2018-04-17T06:08:13.899Z,4116.00
2018-04-17T06:09:13.914Z,4128.00
2018-04-17T06:10:13.942Z,4140.00
2018-04-17T06:11:13.959Z,4152.00
2018-04-17T06:12:13.983Z,4168.00
2018-04-17T06:13:14.007Z,4184.00
2018-04-17T06:14:14.025Z,4200.00
2018-04-17T06:15:14.057Z,4208.00
2018-04-17T06:16:14.077Z,4224.00
2018-04-17T06:17:14.093Z,4232.00
2018-04-17T06:18:14.114Z,4248.00
2018-04-17T06:19:14.139Z,4268.00
2018-04-17T06:20:14.163Z,4276.00
2018-04-17T06:21:14.182Z,4296.00
2018-04-17T06:22:14.205Z,4304.00
2018-04-17T06:23:14.279Z,4316.00
2018-04-17T06:24:14.257Z,4320.00
2018-04-17T06:25:14.278Z,4336.00
2018-04-17T06:26:14.293Z,4340.00
2018-04-17T06:27:14.318Z,4348.00
2018-04-17T06:28:14.347Z,4364.00
2018-04-17T06:29:14.368Z,4372.00
2018-04-17T06:30:14.386Z,4376.00
2018-04-17T06:31:14.412Z,4392.00
2018-04-17T06:32:14.429Z,4400.00
2018-04-17T06:33:14.453Z,4420.00
2018-04-17T06:34:14.477Z,4432.00
2018-04-17T06:35:14.497Z,4440.00
2018-04-17T06:36:14.527Z,4456.00
2018-04-17T06:37:14.546Z,4468.00
2018-04-17T06:38:14.571Z,4476.00
2018-04-17T06:39:14.587Z,4488.00
2018-04-17T06:40:14.606Z,4504.00
2018-04-17T06:41:14.633Z,4508.00
2018-04-17T06:42:14.665Z,4528.00
2018-04-17T06:43:14.677Z,4540.00
2018-04-17T06:44:14.712Z,4548.00
2018-04-17T06:45:14.722Z,4564.00
2018-04-17T06:46:14.743Z,4568.00
2018-04-17T06:47:14.818Z,4572.00
2018-04-17T06:48:14.796Z,4584.00
2018-04-17T06:49:14.811Z,4592.00
2018-04-17T06:50:14.837Z,4600.00
2018-04-17T06:51:14.856Z,4612.00
2018-04-17T06:52:14.881Z,4620.00
2018-04-17T06:53:14.902Z,4628.00
2018-04-17T06:54:14.934Z,4640.00
2018-04-17T06:55:14.954Z,4648.00
2018-04-17T06:56:14.971Z,4660.00
2018-04-17T06:57:14.998Z,4672.00
2018-04-17T06:58:15.019Z,4676.00
2018-04-17T06:59:15.040Z,4684.00
2018-04-17T07:00:15.062Z,4692.00
2018-04-17T07:01:15.088Z,4700.00
2018-04-17T07:02:15.108Z,4716.00
2018-04-17T07:03:15.131Z,4732.00
2018-04-17T07:04:15.152Z,4740.00
2018-04-17T07:05:15.186Z,4744.00
2018-04-17T07:06:15.198Z,4756.00
2018-04-17T07:07:15.224Z,4764.00
2018-04-17T07:08:15.250Z,4768.00
2018-04-17T07:09:15.274Z,4752.00
2018-04-17T07:10:15.294Z,4784.00
2018-04-17T07:11:15.311Z,4704.00
2018-04-17T07:12:15.344Z,4792.00
2018-04-17T07:13:15.357Z,4804.00
2018-04-17T07:14:15.384Z,4696.00
2018-04-17T07:15:15.409Z,4808.00
2018-04-17T07:16:15.426Z,4824.00
2018-04-17T07:17:15.468Z,4832.00
2018-04-17T07:18:15.475Z,4836.00
2018-04-17T07:19:15.503Z,4844.00
2018-04-17T07:20:15.523Z,4844.00
2018-04-17T07:21:15.641Z,4860.00
2018-04-17T07:22:15.570Z,4860.00
2018-04-17T07:23:15.585Z,4864.00
2018-04-17T07:24:15.610Z,4872.00
2018-04-17T07:25:15.635Z,4880.00
2018-04-17T07:26:15.655Z,4884.00
2018-04-17T07:27:15.680Z,4896.00
2018-04-17T07:28:15.700Z,4912.00
2018-04-17T07:29:15.728Z,4920.00
2018-04-17T07:30:15.751Z,4920.00
2018-04-17T07:31:15.776Z,4928.00
2018-04-17T07:32:15.794Z,4968.00
2018-04-17T07:33:15.820Z,4936.00
2018-04-17T07:34:15.844Z,4936.00
2018-04-17T07:35:15.868Z,4932.00
2018-04-17T07:36:15.884Z,4948.00
2018-04-17T07:37:15.910Z,4952.00
2018-04-17T07:38:15.931Z,4964.00
2018-04-17T07:39:15.955Z,4976.00
2018-04-17T07:40:15.979Z,4992.00
2018-04-17T07:41:15.999Z,4996.00
2018-04-17T07:42:16.023Z,5000.00
2018-04-17T07:43:16.044Z,5016.00
2018-04-17T07:44:16.076Z,5032.00
2018-04-17T07:45:16.102Z,5056.00
2018-04-17T07:46:16.121Z,5052.00
2018-04-17T07:47:16.139Z,4976.00
2018-04-17T07:48:16.171Z,5060.00
2018-04-17T07:49:16.198Z,5076.00
2018-04-17T07:50:16.213Z,5084.00
2018-04-17T07:51:16.228Z,5100.00
2018-04-17T07:52:16.257Z,4788.00
2018-04-17T07:53:16.282Z,4548.00
2018-04-17T07:54:16.308Z,4136.00
2018-04-17T07:55:16.330Z,4308.00
2018-04-17T07:56:16.356Z,5548.00
2018-04-17T07:57:16.379Z,5132.00
2018-04-17T07:58:16.391Z,5208.00
2018-04-17T07:59:16.420Z,5700.00
2018-04-17T08:00:16.443Z,5280.00
2018-04-17T08:01:16.463Z,5300.00
2018-04-17T08:02:16.492Z,5688.00
2018-04-17T08:03:16.523Z,5504.00
2018-04-17T08:04:16.538Z,5432.00
2018-04-17T08:05:16.566Z,5504.00
2018-04-17T08:06:16.584Z,5540.00
2018-04-17T08:07:16.614Z,5588.00
2018-04-17T08:08:16.635Z,5648.00
2018-04-17T08:09:16.676Z,5636.00
2018-04-17T08:10:16.678Z,5748.00
2018-04-17T08:11:16.708Z,5832.00
2018-04-17T08:12:16.725Z,5844.00
2018-04-17T08:13:16.751Z,5892.00
2018-04-17T08:14:16.770Z,6008.00
2018-04-17T08:15:16.793Z,6008.00
2018-04-17T08:16:16.826Z,6136.00
2018-04-17T08:17:16.845Z,6148.00
2018-04-17T08:18:16.862Z,6180.00
2018-04-17T08:19:16.888Z,6192.00
2018-04-17T08:20:16.911Z,6380.00
2018-04-17T08:21:16.937Z,6252.00
2018-04-17T08:22:16.964Z,6292.00
2018-04-17T08:23:16.984Z,6312.00
2018-04-17T08:24:17.008Z,6316.00
2018-04-17T08:25:17.032Z,6328.00
2018-04-17T08:26:17.051Z,6376.00
2018-04-17T08:27:17.084Z,6384.00
2018-04-17T08:28:17.109Z,6436.00
2018-04-17T08:29:17.129Z,6500.00
2018-04-17T08:30:17.154Z,6664.00
2018-04-17T08:31:17.180Z,6636.00
2018-04-17T08:32:17.204Z,6668.00
2018-04-17T08:33:17.222Z,6668.00
2018-04-17T08:34:17.247Z,6824.00
2018-04-17T08:35:17.272Z,6868.00
2018-04-17T08:36:17.298Z,6816.00
2018-04-17T08:37:17.326Z,6832.00
2018-04-17T08:38:17.342Z,6860.00
2018-04-17T08:39:17.369Z,6868.00
2018-04-17T08:40:17.388Z,6784.00
2018-04-17T08:41:17.422Z,6760.00
2018-04-17T08:42:17.440Z,6748.00
2018-04-17T08:43:17.464Z,6744.00
2018-04-17T08:44:17.488Z,6668.00
2018-04-17T08:45:17.513Z,6612.00
2018-04-17T08:46:17.540Z,6568.00
2018-04-17T08:47:17.557Z,6604.00
2018-04-17T08:48:17.584Z,6712.00
2018-04-17T08:49:17.606Z,6620.00
2018-04-17T08:50:17.628Z,6664.00
2018-04-17T08:51:17.657Z,6712.00
2018-04-17T08:52:17.678Z,6760.00
2018-04-17T08:53:17.700Z,6864.00
2018-04-17T08:54:17.726Z,6864.00
2018-04-17T08:55:17.761Z,7164.00
2018-04-17T08:56:17.777Z,6980.00
2018-04-17T08:57:17.803Z,6872.00
2018-04-17T08:58:17.831Z,6768.00
2018-04-17T08:59:17.851Z,6776.00
2018-04-17T09:00:17.885Z,6720.00
2018-04-17T09:01:17.898Z,6656.00
2018-04-17T09:02:17.928Z,6696.00
2018-04-17T09:03:17.944Z,6640.00
2018-04-17T09:04:17.968Z,6664.00
2018-04-17T09:05:18.037Z,6776.00
2018-04-17T09:06:18.020Z,7280.00
2018-04-17T09:07:18.040Z,7056.00
2018-04-17T09:08:18.065Z,6736.00
2018-04-17T09:09:18.094Z,6776.00
2018-04-17T09:10:18.109Z,6668.00
2018-04-17T09:11:18.140Z,6572.00
2018-04-17T09:12:18.168Z,7140.00
2018-04-17T09:13:18.190Z,7836.00
2018-04-17T09:14:18.208Z,8332.00
2018-04-17T09:15:18.236Z,7648.00
2018-04-17T09:16:18.264Z,7080.00
2018-04-17T09:17:18.285Z,6992.00
2018-04-17T09:18:18.313Z,6928.00
2018-04-17T09:19:18.329Z,6996.00
2018-04-17T09:20:18.354Z,7384.00
2018-04-17T09:21:18.385Z,7564.00
2018-04-17T09:22:18.417Z,6892.00
2018-04-17T09:23:18.433Z,6912.00
2018-04-17T09:24:18.454Z,7096.00
2018-04-17T09:25:18.480Z,7564.00
2018-04-17T09:26:18.503Z,7908.00
2018-04-17T09:27:18.536Z,7216.00
2018-04-17T09:28:18.550Z,7100.00
2018-04-17T09:29:18.631Z,7280.00
2018-04-17T09:30:18.609Z,7460.00
2018-04-17T09:31:18.627Z,7452.00
2018-04-17T09:32:18.649Z,7532.00
2018-04-17T09:33:18.675Z,7472.00
2018-04-17T09:34:18.704Z,7436.00
2018-04-17T09:35:18.727Z,7348.00
2018-04-17T09:36:18.751Z,7368.00
2018-04-17T09:37:18.776Z,7304.00
2018-04-17T09:38:18.804Z,7376.00
2018-04-17T09:39:18.818Z,7472.00
2018-04-17T09:40:18.845Z,7388.00
2018-04-17T09:41:18.873Z,7448.00
2018-04-17T09:42:18.897Z,7520.00
2018-04-17T09:43:18.923Z,7464.00
2018-04-17T09:44:18.943Z,7524.00
2018-04-17T09:45:18.967Z,7496.00
2018-04-17T09:46:18.992Z,7464.00
2018-04-17T09:47:19.019Z,7556.00
2018-04-17T09:48:19.054Z,7612.00
2018-04-17T09:49:19.075Z,7648.00
2018-04-17T09:50:19.095Z,7692.00
2018-04-17T09:51:19.123Z,7584.00
2018-04-17T09:52:19.141Z,7588.00
2018-04-17T09:53:19.168Z,7632.00
2018-04-17T09:54:19.191Z,7716.00
2018-04-17T09:55:19.222Z,7804.00
2018-04-17T09:56:19.241Z,7920.00
2018-04-17T09:57:19.270Z,7972.00
2018-04-17T09:58:19.289Z,8028.00
2018-04-17T09:59:19.326Z,8052.00
2018-04-17T10:00:19.347Z,8080.00
2018-04-17T10:01:19.362Z,8088.00
2018-04-17T10:02:19.393Z,8092.00
2018-04-17T10:03:19.416Z,8068.00
2018-04-17T10:04:19.444Z,8072.00
2018-04-17T10:05:19.473Z,8164.00
2018-04-17T10:06:19.489Z,8220.00
2018-04-17T10:07:19.513Z,8260.00
2018-04-17T10:08:19.546Z,8416.00
2018-04-17T10:09:19.562Z,8568.00
2018-04-17T10:10:19.589Z,8732.00
2018-04-17T10:11:19.615Z,8788.00
2018-04-17T10:12:19.642Z,8860.00
2018-04-17T10:13:19.666Z,9032.00
2018-04-17T10:14:19.687Z,9152.00
2018-04-17T10:15:19.711Z,9100.00
2018-04-17T10:16:19.738Z,9588.00
2018-04-17T10:17:19.766Z,10444.00
2018-04-17T10:18:19.787Z,9968.00
2018-04-17T10:19:19.808Z,10252.00
2018-04-17T10:20:19.849Z,11148.00
2018-04-17T10:21:19.859Z,11600.00
2018-04-17T10:22:19.888Z,10864.00
2018-04-17T10:23:19.908Z,10344.00
2018-04-17T10:24:19.940Z,9572.00
2018-04-17T10:25:19.964Z,10368.00
2018-04-17T10:26:19.982Z,10648.00
2018-04-17T10:27:20.015Z,11260.00
2018-04-17T10:28:20.036Z,11088.00
2018-04-17T10:29:20.061Z,10548.00
2018-04-17T10:30:20.164Z,10516.00
2018-04-17T10:31:20.120Z,10680.00
2018-04-17T10:32:20.137Z,11260.00
2018-04-17T10:33:20.163Z,11288.00
2018-04-17T10:34:20.192Z,11616.00
2018-04-17T10:35:20.215Z,12596.00
2018-04-17T10:36:20.237Z,12184.00
2018-04-17T10:37:20.266Z,13748.00
2018-04-17T10:38:20.295Z,12404.00
2018-04-17T10:39:20.319Z,12864.00
2018-04-17T10:40:20.339Z,13740.00
2018-04-17T10:41:20.368Z,14844.00
2018-04-17T10:42:20.391Z,14360.00
2018-04-17T10:43:20.421Z,15736.00
2018-04-17T10:44:20.449Z,17556.00
2018-04-17T10:45:20.470Z,19264.00
2018-04-17T10:46:20.492Z,14260.00
2018-04-17T10:47:20.521Z,13420.00
2018-04-17T10:48:20.550Z,19904.00
2018-04-17T10:49:20.571Z,20896.00
2018-04-17T10:50:20.599Z,21408.00
2018-04-17T10:51:20.626Z,14544.00
2018-04-17T10:52:20.651Z,23232.00
2018-04-17T10:53:20.678Z,20736.00
2018-04-17T10:54:20.714Z,26720.00
2018-04-17T10:55:20.730Z,28608.00
2018-04-17T10:56:20.755Z,33088.00
2018-04-17T10:57:20.785Z,37088.00
2018-04-17T10:58:20.810Z,38208.00
2018-04-17T10:59:20.840Z,38240.00
2018-04-17T11:00:20.865Z,36768.00
2018-04-17T11:01:20.893Z,38656.00
2018-04-17T11:02:20.919Z,38496.00
2018-04-17T11:03:20.993Z,39584.00
2018-04-17T11:04:20.978Z,41184.00
2018-04-17T11:05:21.010Z,41568.00
2018-04-17T11:06:21.035Z,40992.00
2018-04-17T11:07:21.059Z,41664.00
2018-04-17T11:08:21.089Z,42272.00
2018-04-17T11:09:21.120Z,40064.00
2018-04-17T11:10:21.178Z,41984.00
2018-04-17T11:11:21.189Z,42784.00
2018-04-17T11:12:21.213Z,43552.00
2018-04-17T11:13:21.243Z,43040.00
2018-04-17T11:14:21.277Z,43744.00
2018-04-17T11:15:21.312Z,44704.00
2018-04-17T11:16:21.343Z,44576.00
2018-04-17T11:17:21.374Z,44128.00
2018-04-17T11:18:21.408Z,36352.00
2018-04-17T11:19:21.436Z,46976.00
2018-04-17T11:20:21.468Z,48992.00
2018-04-17T11:21:21.502Z,48864.00
2018-04-17T11:22:21.534Z,26304.00
2018-04-17T11:23:21.570Z,48512.00
2018-04-17T11:24:21.601Z,50048.00
2018-04-17T11:25:21.629Z,50688.00
2018-04-17T11:26:21.664Z,38112.00
2018-04-17T11:27:21.693Z,45408.00
2018-04-17T11:28:21.735Z,50944.00
2018-04-17T11:29:21.767Z,52864.00
2018-04-17T11:30:21.794Z,53536.00
2018-04-17T11:31:21.830Z,52480.00
2018-04-17T11:32:21.872Z,50240.00
2018-04-17T11:33:21.904Z,55264.00
2018-04-17T11:34:21.930Z,55648.00
2018-04-17T11:35:21.974Z,53376.00
2018-04-17T11:36:21.999Z,56608.00
2018-04-17T11:37:22.030Z,56000.00
2018-04-17T11:38:22.067Z,55648.00
2018-04-17T11:39:22.104Z,55488.00
2018-04-17T11:40:22.147Z,56256.00
2018-04-17T11:41:22.179Z,57280.00
2018-04-17T11:42:22.213Z,58752.00
2018-04-17T11:43:22.242Z,60800.00
2018-04-17T11:44:22.272Z,25312.00
2018-04-17T11:45:22.307Z,20128.00
2018-04-17T11:46:22.356Z,33216.00
2018-04-17T11:47:22.382Z,19712.00
2018-04-17T11:48:22.417Z,19360.00
2018-04-17T11:49:22.452Z,67040.00
2018-04-17T11:50:22.488Z,68544.00
2018-04-17T11:51:22.525Z,44608.00
2018-04-17T11:52:22.564Z,72288.00
2018-04-17T11:53:22.610Z,73728.00
2018-04-17T11:54:22.624Z,36544.00
2018-04-17T11:55:22.664Z,72256.00
2018-04-17T11:56:22.694Z,70496.00
2018-04-17T11:57:22.731Z,70400.00
2018-04-17T11:58:22.766Z,70048.00
2018-04-17T11:59:22.806Z,69952.00
2018-04-17T12:00:22.841Z,71104.00
2018-04-17T12:01:22.876Z,70176.00
2018-04-17T12:02:22.938Z,69888.00
2018-04-17T12:03:22.950Z,68544.00
2018-04-17T12:04:22.977Z,69280.00
2018-04-17T12:05:23.017Z,70144.00
2018-04-17T12:06:23.054Z,69856.00
2018-04-17T12:07:23.087Z,72096.00
2018-04-17T12:08:23.128Z,74016.00
2018-04-17T12:09:23.161Z,76448.00
2018-04-17T12:10:23.205Z,76992.00
2018-04-17T12:11:23.236Z,25920.00
2018-04-17T12:12:23.277Z,23872.00
2018-04-17T12:13:23.311Z,62528.00
2018-04-17T12:14:23.354Z,78848.00
2018-04-17T12:15:23.386Z,71680.00
2018-04-17T12:16:23.424Z,74048.00
2018-04-17T12:17:23.459Z,75360.00
2018-04-17T12:18:23.502Z,69920.00
2018-04-17T12:19:23.540Z,71232.00
2018-04-17T12:20:23.573Z,70912.00
2018-04-17T12:21:23.608Z,67712.00
2018-04-17T12:22:23.646Z,67520.00
2018-04-17T12:23:23.689Z,70176.00
2018-04-17T12:24:23.722Z,64448.00